createdAt,value
2023-02-26T00:01:02.764Z,3.40
2023-02-26T00:03:31.041Z,3.30
2023-02-26T00:06:02.317Z,3.30
2023-02-26T00:08:31.318Z,3.20
2023-02-26T00:11:01.914Z,3.20
2023-02-26T00:13:32.183Z,3.10
2023-02-26T00:16:01.996Z,3.10
2023-02-26T00:18:30.553Z,3.10
2023-02-26T00:20:58.903Z,3.10
2023-02-26T00:23:27.208Z,3.00
2023-02-26T00:25:55.210Z,3.00
2023-02-26T00:28:23.586Z,3.00
2023-02-26T00:30:53.542Z,3.00
2023-02-26T00:33:21.984Z,3.00
2023-02-26T00:35:50.942Z,3.00
2023-02-26T00:38:19.460Z,2.90
2023-02-26T00:40:53.296Z,2.90
2023-02-26T00:43:24.196Z,2.80
2023-02-26T00:46:00.182Z,2.70
2023-02-26T00:48:41.698Z,2.70
2023-02-26T00:51:19.934Z,2.70
2023-02-26T00:53:54.108Z,2.70
2023-02-26T00:56:22.311Z,2.70
2023-02-26T00:58:50.372Z,2.60
2023-02-26T01:01:19.562Z,2.50
2023-02-26T01:03:48.086Z,2.50
2023-02-26T01:06:19.998Z,2.50
2023-02-26T01:08:54.587Z,2.40
2023-02-26T01:11:22.848Z,2.40
2023-02-26T01:13:51.236Z,2.30
2023-02-26T01:16:26.023Z,2.30
2023-02-26T01:19:00.507Z,2.30
2023-02-26T01:21:35.658Z,2.20
2023-02-26T01:24:06.915Z,2.20
2023-02-26T01:26:35.152Z,2.10
2023-02-26T01:29:03.691Z,2.10
2023-02-26T01:31:40.294Z,2.10
2023-02-26T01:34:15.202Z,2.10
2023-02-26T01:36:49.750Z,2.00
2023-02-26T01:39:25.923Z,2.00
2023-02-26T01:41:56.522Z,2.10
2023-02-26T01:44:30.893Z,2.10
2023-02-26T01:47:10.936Z,2.10
2023-02-26T01:49:39.831Z,2.00
2023-02-26T01:52:09.142Z,2.00
2023-02-26T01:54:38.961Z,2.00
2023-02-26T01:57:09.743Z,2.00
2023-02-26T01:59:40.543Z,1.90
2023-02-26T02:02:11.613Z,1.90
2023-02-26T02:04:40.958Z,1.90
2023-02-26T02:07:09.274Z,1.90
2023-02-26T02:09:37.407Z,1.80
2023-02-26T02:12:23.950Z,1.80
2023-02-26T02:15:04.749Z,1.70
2023-02-26T02:17:45.628Z,1.70
2023-02-26T02:20:42.034Z,1.70
2023-02-26T02:23:14.118Z,1.60
2023-02-26T02:26:11.046Z,1.60
2023-02-26T02:28:50.631Z,1.60
2023-02-26T02:31:24.147Z,1.60
2023-02-26T02:33:56.855Z,1.60
2023-02-26T02:36:32.356Z,1.50
2023-02-26T02:39:04.218Z,1.50
2023-02-26T02:41:36.902Z,1.50
2023-02-26T02:44:08.730Z,1.40
2023-02-26T02:46:42.120Z,1.40
2023-02-26T02:49:14.275Z,1.40
2023-02-26T02:51:46.258Z,1.30
2023-02-26T02:54:18.620Z,1.20
2023-02-26T02:56:56.419Z,1.20
2023-02-26T02:59:29.772Z,1.20
2023-02-26T03:02:05.241Z,1.10
2023-02-26T03:04:33.186Z,1.10
2023-02-26T03:07:01.143Z,1.00
2023-02-26T03:09:29.153Z,1.10
2023-02-26T03:11:57.207Z,1.10
2023-02-26T03:14:25.741Z,1.10
2023-02-26T03:17:10.309Z,1.10
2023-02-26T03:19:46.728Z,1.10
2023-02-26T03:22:19.594Z,1.10
2023-02-26T03:24:52.427Z,1.10
2023-02-26T03:27:27.398Z,1.00
2023-02-26T03:30:00.321Z,0.90
2023-02-26T03:32:33.500Z,1.00
2023-02-26T03:35:08.599Z,0.90
2023-02-26T03:37:39.578Z,0.90
2023-02-26T03:40:13.208Z,0.90
2023-02-26T03:42:45.412Z,0.90
2023-02-26T03:45:17.431Z,0.90
2023-02-26T03:47:49.603Z,0.90
2023-02-26T03:50:21.340Z,0.90
2023-02-26T03:52:51.950Z,0.90
2023-02-26T03:55:25.064Z,0.80
2023-02-26T03:57:53.147Z,0.80
2023-02-26T04:00:22.132Z,0.80
2023-02-26T04:02:57.288Z,0.70
2023-02-26T04:05:28.686Z,0.70
2023-02-26T04:07:58.886Z,0.70
2023-02-26T04:10:33.768Z,0.70
2023-02-26T04:13:02.858Z,0.70
2023-02-26T04:15:30.945Z,0.70
2023-02-26T04:18:00.193Z,0.70
2023-02-26T04:20:28.133Z,0.70
2023-02-26T04:22:56.087Z,0.60
2023-02-26T04:25:24.380Z,0.60
2023-02-26T04:27:52.348Z,0.60
2023-02-26T04:30:20.311Z,0.50
2023-02-26T04:32:48.114Z,0.50
2023-02-26T04:35:17.510Z,0.50
2023-02-26T04:37:45.396Z,0.50
2023-02-26T04:40:13.967Z,0.50
2023-02-26T04:42:42.149Z,0.40
2023-02-26T04:45:10.522Z,0.40
2023-02-26T04:47:38.799Z,0.40
2023-02-26T04:50:07.740Z,0.30
2023-02-26T04:52:37.008Z,0.30
2023-02-26T04:55:07.336Z,0.30
2023-02-26T04:57:35.287Z,0.30
2023-02-26T05:00:06.418Z,0.30
2023-02-26T05:02:34.485Z,0.30
2023-02-26T05:05:02.764Z,0.30
2023-02-26T05:07:30.752Z,0.30
2023-02-26T05:10:00.060Z,0.30
2023-02-26T05:12:28.050Z,0.30
2023-02-26T05:14:56.014Z,0.30
2023-02-26T05:17:23.861Z,0.30
2023-02-26T05:19:51.826Z,0.30
2023-02-26T05:22:19.744Z,0.20
2023-02-26T05:24:48.199Z,0.20
2023-02-26T05:27:17.776Z,0.20
2023-02-26T05:29:46.640Z,0.20
2023-02-26T05:32:14.561Z,0.30
2023-02-26T05:34:42.615Z,0.30
2023-02-26T05:37:10.422Z,0.30
2023-02-26T05:39:38.313Z,0.30
2023-02-26T05:42:06.235Z,0.30
2023-02-26T05:44:36.039Z,0.30
2023-02-26T05:47:04.098Z,0.20
2023-02-26T05:49:31.984Z,0.20
2023-02-26T05:51:59.903Z,0.20
2023-02-26T05:54:27.895Z,0.20
2023-02-26T05:56:55.770Z,0.20
2023-02-26T05:59:23.822Z,0.20
2023-02-26T06:01:53.169Z,0.20
2023-02-26T06:04:21.165Z,0.20
2023-02-26T06:06:49.043Z,0.20
2023-02-26T06:09:17.377Z,0.30
2023-02-26T06:11:45.300Z,0.30
2023-02-26T06:14:13.146Z,0.20
2023-02-26T06:16:41.059Z,0.20
2023-02-26T06:19:10.470Z,0.30
2023-02-26T06:21:38.364Z,0.20
2023-02-26T06:24:06.871Z,0.20
2023-02-26T06:26:34.824Z,0.20
2023-02-26T06:29:02.763Z,0.20
2023-02-26T06:31:30.710Z,0.30
2023-02-26T06:33:58.603Z,0.30
2023-02-26T06:36:28.125Z,0.30
2023-02-26T06:38:56.104Z,0.30
2023-02-26T06:41:24.024Z,0.40
2023-02-26T06:43:51.921Z,0.50
2023-02-26T06:46:19.804Z,0.50
2023-02-26T06:48:47.727Z,0.60
2023-02-26T06:51:15.594Z,0.60
2023-02-26T06:53:44.787Z,0.70
2023-02-26T06:56:12.646Z,0.70
2023-02-26T06:58:40.543Z,0.70
2023-02-26T07:01:08.541Z,0.80
2023-02-26T07:03:36.487Z,0.90
2023-02-26T07:06:25.647Z,1.00
2023-02-26T07:08:54.391Z,1.20
2023-02-26T07:11:22.526Z,1.30
2023-02-26T07:13:51.435Z,1.20
2023-02-26T07:16:19.704Z,1.30
2023-02-26T07:18:47.643Z,1.30
2023-02-26T07:21:15.550Z,1.40
2023-02-26T07:23:43.441Z,1.40
2023-02-26T07:26:12.830Z,1.50
2023-02-26T07:28:40.789Z,1.50
2023-02-26T07:31:08.825Z,1.50
2023-02-26T07:33:38.465Z,1.50
2023-02-26T07:36:07.088Z,1.70
2023-02-26T07:38:34.917Z,1.80
2023-02-26T07:41:02.855Z,2.00
2023-02-26T07:43:32.110Z,2.30
2023-02-26T07:46:00.055Z,2.40
2023-02-26T07:48:27.992Z,2.70
2023-02-26T07:50:56.469Z,3.00
2023-02-26T07:53:24.468Z,3.60
2023-02-26T07:55:52.389Z,4.40
2023-02-26T07:58:20.372Z,4.50
2023-02-26T08:00:49.647Z,4.40
2023-02-26T08:03:17.604Z,4.30
2023-02-26T08:05:45.528Z,4.10
2023-02-26T08:08:13.414Z,4.00
2023-02-26T08:10:42.195Z,3.90
2023-02-26T08:13:10.847Z,3.80
2023-02-26T08:15:39.154Z,3.60
2023-02-26T08:18:08.416Z,3.50
2023-02-26T08:20:36.252Z,3.50
2023-02-26T08:23:04.200Z,3.40
2023-02-26T08:25:32.112Z,3.40
2023-02-26T08:28:01.125Z,3.30
2023-02-26T08:30:29.314Z,3.20
2023-02-26T08:32:57.212Z,3.20
2023-02-26T08:35:26.512Z,3.10
2023-02-26T08:37:54.499Z,3.20
2023-02-26T08:40:22.463Z,3.20
2023-02-26T08:42:50.424Z,3.30
2023-02-26T08:45:18.508Z,3.40
2023-02-26T08:47:56.087Z,3.30
2023-02-26T08:50:27.299Z,3.30
2023-02-26T08:52:55.126Z,3.30
2023-02-26T08:55:23.781Z,3.30
2023-02-26T08:57:51.780Z,3.20
2023-02-26T09:00:20.486Z,3.20
2023-02-26T09:02:48.577Z,3.10
2023-02-26T09:05:16.877Z,3.10
2023-02-26T09:07:46.442Z,3.00
2023-02-26T09:10:17.372Z,3.00
2023-02-26T09:12:46.647Z,3.10
2023-02-26T09:15:15.440Z,3.10
2023-02-26T09:17:43.975Z,3.20
2023-02-26T09:20:13.590Z,3.40
2023-02-26T09:22:41.606Z,3.50
2023-02-26T09:25:12.452Z,3.70
2023-02-26T09:27:40.495Z,3.80
2023-02-26T09:30:09.533Z,3.80
2023-02-26T09:32:38.055Z,3.90
2023-02-26T09:35:06.636Z,4.00
2023-02-26T09:37:34.746Z,4.00
2023-02-26T09:40:03.317Z,4.10
2023-02-26T09:42:45.591Z,4.30
2023-02-26T09:45:21.297Z,4.30
2023-02-26T09:47:52.386Z,4.20
2023-02-26T09:50:25.627Z,4.10
2023-02-26T09:52:57.847Z,3.90
2023-02-26T09:55:29.950Z,3.70
2023-02-26T09:58:03.295Z,3.70
2023-02-26T10:00:37.292Z,3.60
2023-02-26T10:03:20.601Z,3.60
2023-02-26T10:06:03.376Z,3.50
2023-02-26T10:08:38.817Z,3.40
2023-02-26T10:11:12.934Z,3.30
2023-02-26T10:13:57.049Z,3.30
2023-02-26T10:16:29.899Z,3.30
2023-02-26T10:19:03.088Z,3.20
2023-02-26T10:21:36.092Z,3.30
2023-02-26T10:24:08.230Z,3.20
2023-02-26T10:26:40.509Z,3.30
2023-02-26T10:29:19.198Z,3.30
2023-02-26T10:32:00.862Z,3.30
2023-02-26T10:34:32.877Z,3.40
2023-02-26T10:37:12.329Z,3.50
2023-02-26T10:39:44.914Z,3.50
2023-02-26T10:42:18.637Z,3.50
2023-02-26T10:44:54.171Z,3.50
2023-02-26T10:47:29.797Z,3.60
2023-02-26T10:50:02.657Z,3.60
2023-02-26T10:52:34.720Z,3.80
2023-02-26T10:55:09.396Z,4.10
2023-02-26T10:57:41.247Z,4.40
2023-02-26T11:00:18.146Z,4.70
2023-02-26T11:02:49.309Z,4.90
2023-02-26T11:05:19.643Z,5.20
2023-02-26T11:07:52.267Z,5.80
2023-02-26T11:10:23.809Z,6.40
2023-02-26T11:12:52.502Z,6.60
2023-02-26T11:15:23.395Z,6.60
2023-02-26T11:17:56.084Z,6.60
2023-02-26T11:20:31.874Z,6.60
2023-02-26T11:23:01.359Z,6.60
2023-02-26T11:25:33.966Z,6.40
2023-02-26T11:28:07.064Z,6.10
2023-02-26T11:30:38.205Z,5.80
2023-02-26T11:33:16.800Z,5.50
2023-02-26T11:35:45.775Z,5.30
2023-02-26T11:38:20.099Z,5.00
2023-02-26T11:40:50.670Z,4.90
2023-02-26T11:43:21.037Z,4.80
2023-02-26T11:45:54.914Z,4.70
2023-02-26T11:48:26.232Z,4.60
2023-02-26T11:50:58.579Z,4.50
2023-02-26T11:53:31.127Z,4.50
2023-02-26T11:56:02.914Z,4.70
2023-02-26T11:58:36.419Z,4.90
2023-02-26T12:01:08.185Z,5.20
2023-02-26T12:03:41.045Z,5.40
2023-02-26T12:06:17.192Z,5.60
2023-02-26T12:08:45.368Z,5.60
2023-02-26T12:11:43.560Z,5.40
2023-02-26T12:14:35.668Z,5.20
2023-02-26T12:17:17.167Z,5.10
2023-02-26T12:19:52.765Z,5.00
2023-02-26T12:22:43.939Z,4.90
2023-02-26T12:25:33.447Z,4.80
2023-02-26T12:28:35.417Z,4.70
2023-02-26T12:31:28.984Z,4.80
2023-02-26T12:34:08.349Z,4.80
2023-02-26T12:36:50.450Z,5.00
2023-02-26T12:39:41.870Z,5.00
2023-02-26T12:42:21.224Z,5.00
2023-02-26T12:45:16.530Z,4.90
2023-02-26T12:47:53.925Z,4.80
2023-02-26T12:50:42.280Z,4.80
2023-02-26T12:53:33.763Z,4.70
2023-02-26T12:56:12.332Z,4.60
2023-02-26T12:58:52.341Z,4.50
2023-02-26T13:01:38.236Z,4.50
2023-02-26T13:04:35.835Z,4.40
2023-02-26T13:07:40.155Z,4.30
2023-02-26T13:10:18.114Z,4.40
2023-02-26T13:12:55.162Z,4.50
2023-02-26T13:15:40.149Z,4.50
2023-02-26T13:18:12.276Z,4.50
2023-02-26T13:20:48.096Z,4.50
2023-02-26T13:23:22.662Z,4.50
2023-02-26T13:25:55.367Z,4.80
2023-02-26T13:28:31.806Z,5.60
2023-02-26T13:31:02.652Z,6.60
2023-02-26T13:33:33.232Z,7.10
2023-02-26T13:36:03.048Z,7.40
2023-02-26T13:38:43.051Z,7.40
2023-02-26T13:41:16.614Z,7.10
2023-02-26T13:44:08.646Z,6.70
2023-02-26T13:46:50.053Z,6.40
2023-02-26T13:49:23.092Z,6.20
2023-02-26T13:51:54.656Z,6.00
2023-02-26T13:54:50.084Z,5.80
2023-02-26T13:57:27.904Z,5.60
2023-02-26T14:00:02.272Z,5.60
2023-02-26T14:02:47.870Z,5.50
2023-02-26T14:05:52.621Z,5.50
2023-02-26T14:08:45.248Z,5.40
2023-02-26T14:11:52.801Z,6.00
2023-02-26T14:14:30.544Z,6.50
2023-02-26T14:17:28.032Z,6.80
2023-02-26T14:20:18.909Z,7.80
2023-02-26T14:22:49.881Z,8.60
2023-02-26T14:25:22.980Z,8.40
2023-02-26T14:27:51.331Z,8.20
2023-02-26T14:30:31.131Z,7.80
2023-02-26T14:33:10.098Z,7.60
2023-02-26T14:35:41.650Z,7.40
2023-02-26T14:38:14.318Z,7.30
2023-02-26T14:40:47.644Z,7.30
2023-02-26T14:43:21.195Z,7.10
2023-02-26T14:45:51.614Z,6.90
2023-02-26T14:48:24.796Z,6.70
2023-02-26T14:51:06.222Z,6.50
2023-02-26T14:54:09.332Z,6.40
2023-02-26T14:56:52.805Z,6.10
2023-02-26T14:59:33.725Z,5.80
2023-02-26T15:02:16.626Z,5.50
2023-02-26T15:05:22.151Z,5.30
2023-02-26T15:08:20.073Z,5.10
2023-02-26T15:11:02.655Z,5.00
2023-02-26T15:13:50.677Z,4.90
2023-02-26T15:16:30.796Z,5.00
2023-02-26T15:19:15.249Z,5.20
2023-02-26T15:21:57.120Z,5.20
2023-02-26T15:24:25.456Z,5.30
2023-02-26T15:26:57.904Z,5.30
2023-02-26T15:29:30.016Z,5.20
2023-02-26T15:32:03.196Z,5.00
2023-02-26T15:34:33.982Z,4.90
2023-02-26T15:37:02.580Z,4.80
2023-02-26T15:39:30.499Z,4.80
2023-02-26T15:41:58.463Z,4.80
2023-02-26T15:44:29.151Z,4.70
2023-02-26T15:47:01.291Z,4.80
2023-02-26T15:49:34.990Z,4.80
2023-02-26T15:52:04.491Z,4.80
2023-02-26T15:54:38.126Z,4.80
2023-02-26T15:57:06.522Z,4.70
2023-02-26T15:59:35.549Z,4.70
2023-02-26T16:02:04.377Z,4.60
2023-02-26T16:04:36.718Z,4.50
2023-02-26T16:07:04.779Z,4.40
2023-02-26T16:09:36.845Z,4.30
2023-02-26T16:12:10.088Z,4.20
2023-02-26T16:14:39.822Z,4.10
2023-02-26T16:17:12.013Z,4.00
2023-02-26T16:19:45.148Z,4.00
2023-02-26T16:22:20.797Z,4.00
2023-02-26T16:24:53.919Z,4.00
2023-02-26T16:27:22.057Z,3.90
2023-02-26T16:29:53.479Z,3.90
2023-02-26T16:32:21.730Z,3.90
2023-02-26T16:34:54.127Z,3.80
2023-02-26T16:37:28.032Z,3.80
2023-02-26T16:39:58.403Z,3.80
2023-02-26T16:42:38.383Z,3.80
2023-02-26T16:45:23.465Z,3.80
2023-02-26T16:47:55.052Z,3.70
2023-02-26T16:50:27.984Z,3.70
2023-02-26T16:53:01.783Z,3.70
2023-02-26T16:55:32.613Z,3.70
2023-02-26T16:58:02.665Z,3.60
2023-02-26T17:00:31.772Z,3.60
2023-02-26T17:03:11.103Z,3.60
2023-02-26T17:05:43.993Z,3.50
2023-02-26T17:08:18.322Z,3.50
2023-02-26T17:10:48.395Z,3.50
2023-02-26T17:13:19.939Z,3.50
2023-02-26T17:15:49.141Z,3.50
2023-02-26T17:18:17.530Z,3.50
2023-02-26T17:20:46.885Z,3.40
2023-02-26T17:23:17.187Z,3.40
2023-02-26T17:25:47.213Z,3.40
2023-02-26T17:28:21.801Z,3.40
2023-02-26T17:30:49.840Z,3.40
2023-02-26T17:33:17.785Z,3.40
2023-02-26T17:35:47.502Z,3.40
2023-02-26T17:38:16.564Z,3.40
2023-02-26T17:40:47.612Z,3.40
2023-02-26T17:43:15.650Z,3.40
2023-02-26T17:45:43.878Z,3.30
2023-02-26T17:48:13.225Z,3.30
2023-02-26T17:50:47.013Z,3.20
2023-02-26T17:53:17.351Z,3.20
2023-02-26T17:55:46.425Z,3.20
2023-02-26T17:58:19.006Z,3.10
2023-02-26T18:00:49.809Z,3.10
2023-02-26T18:03:18.314Z,3.10
2023-02-26T18:05:46.669Z,3.10
2023-02-26T18:08:20.545Z,3.00
2023-02-26T18:10:48.511Z,3.00
2023-02-26T18:13:16.513Z,3.00
2023-02-26T18:15:44.485Z,3.00
2023-02-26T18:18:13.317Z,3.00
2023-02-26T18:20:42.572Z,3.00
2023-02-26T18:23:13.625Z,3.00
2023-02-26T18:25:44.419Z,3.00
2023-02-26T18:28:16.670Z,3.10
2023-02-26T18:30:45.342Z,3.00
2023-02-26T18:33:16.951Z,3.00
2023-02-26T18:35:47.075Z,3.00
2023-02-26T18:38:15.957Z,3.00
2023-02-26T18:40:46.550Z,3.00
2023-02-26T18:43:15.284Z,3.00
2023-02-26T18:45:44.315Z,2.90
2023-02-26T18:48:15.867Z,2.90
2023-02-26T18:50:43.861Z,2.90
2023-02-26T18:53:12.473Z,2.90
2023-02-26T18:55:40.432Z,2.90
2023-02-26T18:58:09.755Z,2.90
2023-02-26T19:00:37.704Z,2.80
2023-02-26T19:03:05.597Z,2.80
2023-02-26T19:05:33.547Z,2.70
2023-02-26T19:08:01.701Z,2.60
2023-02-26T19:10:31.426Z,2.60
2023-02-26T19:12:59.637Z,2.50
2023-02-26T19:15:29.194Z,2.50
2023-02-26T19:17:57.482Z,2.50
2023-02-26T19:20:25.349Z,2.50
2023-02-26T19:22:53.347Z,2.60
2023-02-26T19:25:23.948Z,2.60
2023-02-26T19:27:53.451Z,2.60
2023-02-26T19:30:21.607Z,2.60
2023-02-26T19:32:50.952Z,2.60
2023-02-26T19:35:19.586Z,2.70
2023-02-26T19:37:47.594Z,2.70
2023-02-26T19:40:17.286Z,2.60
2023-02-26T19:42:45.521Z,2.60
2023-02-26T19:45:14.354Z,2.60
2023-02-26T19:47:42.754Z,2.60
2023-02-26T19:50:13.949Z,2.60
2023-02-26T19:52:42.073Z,2.50
2023-02-26T19:55:11.464Z,2.50
2023-02-26T19:57:39.316Z,2.40
2023-02-26T20:00:08.541Z,2.40
2023-02-26T20:02:36.537Z,2.30
2023-02-26T20:05:05.743Z,2.30
2023-02-26T20:07:35.493Z,2.30
2023-02-26T20:10:03.398Z,2.20
2023-02-26T20:12:31.274Z,2.20
2023-02-26T20:14:59.184Z,2.20
2023-02-26T20:17:27.085Z,2.10
2023-02-26T20:19:54.948Z,2.10
2023-02-26T20:22:24.528Z,2.10
2023-02-26T20:24:53.752Z,2.10
2023-02-26T20:27:21.684Z,2.10
2023-02-26T20:29:50.916Z,2.00
2023-02-26T20:32:19.350Z,2.00
2023-02-26T20:34:47.502Z,2.00
2023-02-26T20:37:15.444Z,2.00
2023-02-26T20:39:43.924Z,2.00
2023-02-26T20:42:13.354Z,2.00
2023-02-26T20:44:41.270Z,1.90
2023-02-26T20:47:09.223Z,1.90
2023-02-26T20:49:37.184Z,1.90
2023-02-26T20:52:05.660Z,1.90
2023-02-26T20:54:33.668Z,1.90
2023-02-26T20:57:01.598Z,1.90
2023-02-26T20:59:30.945Z,1.80
2023-02-26T21:01:58.862Z,1.80
2023-02-26T21:04:28.864Z,1.80
2023-02-26T21:07:12.439Z,1.70
2023-02-26T21:09:40.729Z,1.70
2023-02-26T21:12:08.751Z,1.70
2023-02-26T21:14:38.051Z,1.70
2023-02-26T21:17:07.189Z,1.70
2023-02-26T21:19:35.154Z,1.70
2023-02-26T21:22:03.142Z,1.70
2023-02-26T21:24:31.059Z,1.70
2023-02-26T21:26:58.930Z,1.60
2023-02-26T21:29:27.056Z,1.70
2023-02-26T21:31:57.402Z,1.60
2023-02-26T21:34:34.316Z,1.60
2023-02-26T21:37:02.961Z,1.60
2023-02-26T21:39:32.358Z,1.60
2023-02-26T21:42:03.277Z,1.60
2023-02-26T21:44:32.712Z,1.60
2023-02-26T21:47:02.129Z,1.50
2023-02-26T21:49:31.930Z,1.50
2023-02-26T21:52:00.835Z,1.50
2023-02-26T21:54:29.267Z,1.50
2023-02-26T21:56:57.719Z,1.50
2023-02-26T21:59:25.920Z,1.50
2023-02-26T22:01:54.433Z,1.50
2023-02-26T22:04:23.844Z,1.50
2023-02-26T22:06:51.764Z,1.50
2023-02-26T22:09:20.149Z,1.50
2023-02-26T22:11:48.342Z,1.50
2023-02-26T22:14:16.648Z,1.50
2023-02-26T22:16:44.599Z,1.60
2023-02-26T22:19:12.509Z,1.60
2023-02-26T22:21:41.820Z,1.60
2023-02-26T22:24:09.941Z,1.60
2023-02-26T22:26:37.869Z,1.50
2023-02-26T22:29:05.856Z,1.50
2023-02-26T22:31:34.034Z,1.50
2023-02-26T22:34:02.072Z,1.50
2023-02-26T22:36:31.232Z,1.40
2023-02-26T22:39:00.535Z,1.40
2023-02-26T22:41:28.426Z,1.40
2023-02-26T22:43:56.350Z,1.40
2023-02-26T22:46:25.465Z,1.40
2023-02-26T22:48:53.783Z,1.40
2023-02-26T22:51:21.795Z,1.40
2023-02-26T22:53:50.094Z,1.30
2023-02-26T22:56:19.484Z,1.40
2023-02-26T22:58:47.422Z,1.40
2023-02-26T23:01:15.363Z,1.30
2023-02-26T23:03:43.241Z,1.30
2023-02-26T23:06:11.583Z,1.30
2023-02-26T23:08:39.712Z,1.30
2023-02-26T23:11:08.238Z,1.30
2023-02-26T23:13:38.014Z,1.30
2023-02-26T23:16:08.461Z,1.20
2023-02-26T23:18:37.978Z,1.20
2023-02-26T23:21:07.668Z,1.20
2023-02-26T23:23:35.587Z,1.20
2023-02-26T23:26:03.625Z,1.20
2023-02-26T23:28:31.605Z,1.20
2023-02-26T23:31:00.846Z,1.20
2023-02-26T23:33:28.773Z,1.20
2023-02-26T23:35:56.599Z,1.20
2023-02-26T23:38:24.744Z,1.20
2023-02-26T23:40:52.608Z,1.10
2023-02-26T23:43:20.489Z,1.10
2023-02-26T23:45:48.340Z,1.10
2023-02-26T23:48:17.568Z,1.10
2023-02-26T23:50:45.406Z,1.10
2023-02-26T23:53:13.331Z,1.10
2023-02-26T23:55:41.331Z,1.10
2023-02-26T23:58:09.330Z,1.00
